createdAt,value
2018-08-18T00:02:25.657Z,101586.35
2018-08-18T00:04:51.623Z,101584.77
2018-08-18T00:07:17.699Z,101580.10
2018-08-18T00:09:43.650Z,101584.87
2018-08-18T00:12:09.677Z,101580.79
2018-08-18T00:14:35.637Z,101578.65
2018-08-18T00:17:01.605Z,101581.29
2018-08-18T00:19:27.564Z,101575.57
2018-08-18T00:21:53.521Z,101573.52
2018-08-18T00:24:19.492Z,101579.42
2018-08-18T00:26:45.479Z,101580.06
2018-08-18T00:29:11.439Z,101581.44
2018-08-18T00:31:37.408Z,101585.11
2018-08-18T00:34:03.362Z,101586.61
2018-08-18T00:36:29.340Z,101582.26
2018-08-18T00:38:55.350Z,101582.45
2018-08-18T00:41:21.375Z,101589.54
2018-08-18T00:43:47.349Z,101585.91
2018-08-18T00:46:13.339Z,101582.90
2018-08-18T00:48:39.327Z,101580.94
2018-08-18T00:51:05.299Z,101587.52
2018-08-18T00:53:31.969Z,101584.23
2018-08-18T00:55:57.914Z,101584.73
2018-08-18T00:58:23.887Z,101587.05
2018-08-18T01:00:49.885Z,101594.53
2018-08-18T01:03:15.849Z,101595.16
2018-08-18T01:05:41.803Z,101596.63
2018-08-18T01:08:07.846Z,101599.65
2018-08-18T01:10:33.783Z,101604.77
2018-08-18T01:12:59.852Z,101606.79
2018-08-18T01:15:25.752Z,101612.76
2018-08-18T01:17:51.740Z,101610.41
2018-08-18T01:20:17.696Z,101617.69
2018-08-18T01:22:43.675Z,101614.89
2018-08-18T01:25:09.619Z,101618.55
2018-08-18T01:27:35.597Z,101622.37
2018-08-18T01:30:01.567Z,101625.19
2018-08-18T01:32:27.512Z,101625.02
2018-08-18T01:34:53.476Z,101623.19
2018-08-18T01:37:19.452Z,101622.17
2018-08-18T01:39:45.431Z,101622.03
2018-08-18T01:42:11.442Z,101624.19
2018-08-18T01:44:37.448Z,101625.14
2018-08-18T01:47:03.548Z,101622.63
2018-08-18T01:49:29.490Z,101625.00
2018-08-18T01:51:55.458Z,101628.30
2018-08-18T01:54:21.427Z,101628.77
2018-08-18T01:56:47.379Z,101631.64
2018-08-18T01:59:13.342Z,101631.35
2018-08-18T02:01:39.379Z,101631.78
2018-08-18T02:04:05.348Z,101628.62
2018-08-18T02:06:31.330Z,101625.14
2018-08-18T02:08:57.289Z,101628.10
2018-08-18T02:11:23.276Z,101631.47
2018-08-18T02:13:49.206Z,101632.73
2018-08-18T02:16:15.202Z,101627.25
2018-08-18T02:18:41.196Z,101627.61
2018-08-18T02:21:07.155Z,101624.78
2018-08-18T02:23:33.128Z,101622.98
2018-08-18T02:25:59.090Z,101625.09
2018-08-18T02:28:25.047Z,101627.05
2018-08-18T02:30:51.080Z,101628.86
2018-08-18T02:33:17.046Z,101626.39
2018-08-18T02:35:43.057Z,101628.25
2018-08-18T02:38:09.062Z,101618.70
2018-08-18T02:40:35.005Z,101621.91
2018-08-18T02:43:00.975Z,101627.55
2018-08-18T02:45:26.930Z,101628.57
2018-08-18T02:47:52.927Z,101625.53
2018-08-18T02:50:18.899Z,101623.13
2018-08-18T02:52:44.865Z,101621.22
2018-08-18T02:55:10.819Z,101622.05
2018-08-18T02:57:36.776Z,101616.16
2018-08-18T03:00:02.780Z,101619.70
2018-08-18T03:02:28.742Z,101620.61
2018-08-18T03:04:54.724Z,101626.21
2018-08-18T03:07:20.700Z,101618.76
2018-08-18T03:09:46.724Z,101626.67
2018-08-18T03:12:12.732Z,101622.36
2018-08-18T03:14:38.689Z,101624.62
2018-08-18T03:17:04.742Z,101632.79
2018-08-18T03:19:30.720Z,101634.11
2018-08-18T03:21:56.684Z,101633.11
2018-08-18T03:24:22.656Z,101638.62
2018-08-18T03:26:48.702Z,101639.56
2018-08-18T03:29:14.754Z,101640.94
2018-08-18T03:31:40.635Z,101640.20
2018-08-18T03:34:06.605Z,101645.17
2018-08-18T03:36:32.564Z,101647.20
2018-08-18T03:38:58.547Z,101644.16
2018-08-18T03:41:24.508Z,101641.05
2018-08-18T03:43:50.479Z,101646.20
2018-08-18T03:46:16.448Z,101650.48
2018-08-18T03:48:42.421Z,101653.67
2018-08-18T03:51:08.401Z,101655.80
2018-08-18T03:53:34.386Z,101647.45
2018-08-18T03:56:00.471Z,101655.94
2018-08-18T03:58:26.466Z,101655.11
2018-08-18T04:00:52.430Z,101655.99
2018-08-18T04:03:18.418Z,101655.73
2018-08-18T04:05:44.378Z,101661.36
2018-08-18T04:08:10.341Z,101664.70
2018-08-18T04:10:36.301Z,101665.72
2018-08-18T04:13:02.271Z,101669.70
2018-08-18T04:15:28.221Z,101666.86
2018-08-18T04:17:54.186Z,101670.70
2018-08-18T04:20:20.137Z,101669.38
2018-08-18T04:22:46.099Z,101671.64
2018-08-18T04:25:12.172Z,101679.50
2018-08-18T04:27:38.092Z,101680.23
2018-08-18T04:30:04.072Z,101676.45
2018-08-18T04:32:30.047Z,101678.75
2018-08-18T04:34:55.992Z,101675.33
2018-08-18T04:37:21.960Z,101677.59
2018-08-18T04:39:47.989Z,101680.94
2018-08-18T04:42:13.974Z,101682.73
2018-08-18T04:44:39.928Z,101681.88
2018-08-18T04:47:05.916Z,101684.80
2018-08-18T04:49:31.912Z,101683.22
2018-08-18T04:51:57.910Z,101678.72
2018-08-18T04:54:23.888Z,101678.16
2018-08-18T04:56:49.869Z,101675.23
2018-08-18T04:59:15.879Z,101675.56
2018-08-18T05:01:41.824Z,101674.23
2018-08-18T05:04:07.787Z,101673.91
2018-08-18T05:06:33.739Z,101682.00
2018-08-18T05:08:59.801Z,101679.35
2018-08-18T05:11:25.700Z,101682.14
2018-08-18T05:13:51.653Z,101688.14
2018-08-18T05:16:17.704Z,101687.02
2018-08-18T05:18:43.795Z,101694.78
2018-08-18T05:21:09.648Z,101692.95
2018-08-18T05:23:35.627Z,101695.14
2018-08-18T05:26:01.584Z,101693.12
2018-08-18T05:28:27.632Z,101691.49
2018-08-18T05:30:53.617Z,101695.14
2018-08-18T05:33:19.595Z,101690.59
2018-08-18T05:35:45.572Z,101691.43
2018-08-18T05:38:11.539Z,101685.63
2018-08-18T05:40:37.532Z,101686.81
2018-08-18T05:43:03.487Z,101692.48
2018-08-18T05:45:29.496Z,101688.78
2018-08-18T05:47:55.460Z,101692.26
2018-08-18T05:50:21.408Z,101695.77
2018-08-18T05:52:47.376Z,101699.13
2018-08-18T05:55:14.010Z,101698.77
2018-08-18T05:57:39.964Z,101698.56
2018-08-18T06:00:05.922Z,101698.63
2018-08-18T06:02:31.888Z,101700.58
2018-08-18T06:04:57.854Z,101700.45
2018-08-18T06:07:23.815Z,101699.95
2018-08-18T06:09:49.781Z,101704.27
2018-08-18T06:12:15.759Z,101708.25
2018-08-18T06:14:41.712Z,101708.45
2018-08-18T06:17:07.720Z,101704.63
2018-08-18T06:19:33.674Z,101710.41
2018-08-18T06:21:59.693Z,101705.45
2018-08-18T06:24:25.661Z,101712.63
2018-08-18T06:26:51.746Z,101708.81
2018-08-18T06:29:17.725Z,101711.10
2018-08-18T06:31:43.709Z,101715.25
2018-08-18T06:34:09.689Z,101711.47
2018-08-18T06:36:35.713Z,101720.59
2018-08-18T06:39:01.668Z,101718.10
2018-08-18T06:41:27.774Z,101719.13
2018-08-18T06:43:53.605Z,101722.12
2018-08-18T06:46:19.576Z,101730.58
2018-08-18T06:48:45.544Z,101722.75
2018-08-18T06:51:11.518Z,101725.27
2018-08-18T06:53:37.483Z,101727.30
2018-08-18T06:56:03.436Z,101725.83
2018-08-18T06:58:29.407Z,101730.08
2018-08-18T07:00:55.392Z,101728.06
2018-08-18T07:03:21.465Z,101732.30
2018-08-18T07:05:47.429Z,101732.10
2018-08-18T07:08:13.383Z,101736.25
2018-08-18T07:10:40.289Z,101729.66
2018-08-18T07:13:06.263Z,101733.75
2018-08-18T07:15:32.238Z,101732.50
2018-08-18T07:17:58.244Z,101735.75
2018-08-18T07:20:24.280Z,101733.73
2018-08-18T07:22:50.254Z,101730.58
2018-08-18T07:25:16.225Z,101732.04
2018-08-18T07:27:42.251Z,101732.47
2018-08-18T07:30:10.250Z,101729.14
2018-08-18T07:32:36.264Z,101727.16
2018-08-18T07:35:02.293Z,101731.80
2018-08-18T07:37:28.343Z,101727.16
2018-08-18T07:39:54.287Z,101731.47
2018-08-18T07:42:20.377Z,101726.80
2018-08-18T07:44:46.356Z,101728.31
2018-08-18T07:47:12.301Z,101728.81
2018-08-18T07:49:38.290Z,101728.62
2018-08-18T07:52:04.259Z,101727.48
2018-08-18T07:54:30.316Z,101734.45
2018-08-18T07:56:56.282Z,101734.45
2018-08-18T07:59:22.259Z,101731.66
2018-08-18T08:01:48.217Z,101736.17
2018-08-18T08:04:14.211Z,101735.55
2018-08-18T08:06:40.201Z,101733.14
2018-08-18T08:09:06.207Z,101739.73
2018-08-18T08:11:32.274Z,101745.93
2018-08-18T08:13:58.256Z,101743.05
2018-08-18T08:16:24.217Z,101742.14
2018-08-18T08:18:50.168Z,101743.38
2018-08-18T08:21:16.133Z,101742.34
2018-08-18T08:23:42.109Z,101745.97
2018-08-18T08:26:08.180Z,101743.38
2018-08-18T08:28:34.151Z,101745.84
2018-08-18T08:31:00.168Z,101748.84
2018-08-18T08:33:26.162Z,101754.73
2018-08-18T08:35:52.132Z,101753.72
2018-08-18T08:38:18.139Z,101753.22
2018-08-18T08:40:44.098Z,101753.66
2018-08-18T08:43:10.102Z,101752.08
2018-08-18T08:45:36.077Z,101750.50
2018-08-18T08:48:02.057Z,101755.34
2018-08-18T08:50:28.053Z,101754.28
2018-08-18T08:52:54.029Z,101751.63
2018-08-18T08:55:20.026Z,101742.24
2018-08-18T08:57:46.053Z,101738.95
2018-08-18T09:00:12.025Z,101740.48
2018-08-18T09:02:38.074Z,101740.67
2018-08-18T09:05:04.071Z,101743.08
2018-08-18T09:07:30.085Z,101737.33
2018-08-18T09:09:56.103Z,101743.27
2018-08-18T09:12:22.151Z,101738.77
2018-08-18T09:14:48.124Z,101734.97
2018-08-18T09:17:14.142Z,101737.27
2018-08-18T09:19:40.108Z,101736.13
2018-08-18T09:22:06.093Z,101732.63
2018-08-18T09:24:32.064Z,101730.62
2018-08-18T09:26:58.044Z,101731.02
2018-08-18T09:29:24.027Z,101731.87
2018-08-18T09:31:50.028Z,101727.00
2018-08-18T09:34:16.042Z,101729.60
2018-08-18T09:36:42.017Z,101732.15
2018-08-18T09:39:08.006Z,101735.94
2018-08-18T09:41:33.979Z,101733.28
2018-08-18T09:43:59.948Z,101729.30
2018-08-18T09:46:25.999Z,101735.30
2018-08-18T09:48:51.942Z,101730.98
2018-08-18T09:51:17.959Z,101732.21
2018-08-18T09:53:43.932Z,101729.61
2018-08-18T09:56:09.967Z,101723.88
2018-08-18T09:58:36.013Z,101720.81
2018-08-18T10:01:02.137Z,101722.39
2018-08-18T10:03:28.156Z,101713.42
2018-08-18T10:05:54.161Z,101715.25
2018-08-18T10:08:20.170Z,101712.59
2018-08-18T10:10:46.235Z,101715.08
2018-08-18T10:13:12.263Z,101714.31
2018-08-18T10:15:38.237Z,101709.58
2018-08-18T10:18:04.241Z,101711.05
2018-08-18T10:20:30.552Z,101716.66
2018-08-18T10:22:56.548Z,101710.33
2018-08-18T10:25:22.550Z,101710.24
2018-08-18T10:27:48.537Z,101705.16
2018-08-18T10:30:14.580Z,101710.77
2018-08-18T10:32:40.564Z,101711.59
2018-08-18T10:35:06.536Z,101711.40
2018-08-18T10:37:32.591Z,101712.73
2018-08-18T10:39:58.561Z,101711.79
2018-08-18T10:42:24.561Z,101710.63
2018-08-18T10:44:50.647Z,101706.98
2018-08-18T10:47:16.758Z,101709.13
2018-08-18T10:49:43.010Z,101709.33
2018-08-18T10:52:08.993Z,101709.30
2018-08-18T10:54:34.977Z,101706.98
2018-08-18T10:57:00.957Z,101705.09
2018-08-18T10:59:27.031Z,101701.55
2018-08-18T11:01:52.996Z,101700.36
2018-08-18T11:04:19.067Z,101702.36
2018-08-18T11:06:45.074Z,101700.64
2018-08-18T11:09:11.066Z,101707.03
2018-08-18T11:11:37.074Z,101706.67
2018-08-18T11:14:03.302Z,101700.73
2018-08-18T11:16:29.311Z,101693.89
2018-08-18T11:18:55.310Z,101700.53
2018-08-18T11:21:21.328Z,101698.52
2018-08-18T11:23:47.416Z,101698.13
2018-08-18T11:26:13.397Z,101699.78
2018-08-18T11:28:39.552Z,101703.63
2018-08-18T11:31:05.442Z,101692.62
2018-08-18T11:33:31.428Z,101692.31
2018-08-18T11:35:57.422Z,101686.92
2018-08-18T11:38:23.409Z,101684.09
2018-08-18T11:40:49.407Z,101680.03
2018-08-18T11:43:15.496Z,101678.01
2018-08-18T11:45:41.547Z,101680.66
2018-08-18T11:48:07.600Z,101679.03
2018-08-18T11:50:33.634Z,101669.73
2018-08-18T11:52:59.612Z,101675.03
2018-08-18T11:55:25.692Z,101671.06
2018-08-18T11:57:51.705Z,101664.92
2018-08-18T12:00:17.711Z,101651.83
2018-08-18T12:02:43.796Z,101664.28
2018-08-18T12:05:09.823Z,101667.44
2018-08-18T12:07:35.934Z,101666.25
2018-08-18T12:10:01.975Z,101662.45
2018-08-18T12:12:27.941Z,101657.28
2018-08-18T12:14:53.936Z,101654.36
2018-08-18T12:17:19.911Z,101653.66
2018-08-18T12:19:45.912Z,101655.81
2018-08-18T12:22:11.908Z,101655.31
2018-08-18T12:24:37.913Z,101652.84
2018-08-18T12:27:04.177Z,101655.20
2018-08-18T12:29:30.181Z,101644.73
2018-08-18T12:31:56.176Z,101642.53
2018-08-18T12:34:22.160Z,101638.55
2018-08-18T12:36:48.186Z,101640.20
2018-08-18T12:39:14.158Z,101639.61
2018-08-18T12:41:40.162Z,101636.13
2018-08-18T12:44:06.158Z,101627.97
2018-08-18T12:46:32.137Z,101632.42
2018-08-18T12:48:58.136Z,101634.25
2018-08-18T12:51:24.127Z,101637.55
2018-08-18T12:53:50.142Z,101632.23
2018-08-18T12:56:16.219Z,101631.59
2018-08-18T12:58:42.369Z,101625.31
2018-08-18T13:01:08.212Z,101623.31
2018-08-18T13:03:34.235Z,101625.50
2018-08-18T13:06:00.227Z,101623.63
2018-08-18T13:08:26.208Z,101626.33
2018-08-18T13:10:52.170Z,101624.36
2018-08-18T13:13:18.166Z,101609.25
2018-08-18T13:15:44.138Z,101614.89
2018-08-18T13:18:10.120Z,101605.83
2018-08-18T13:20:36.209Z,101598.95
2018-08-18T13:23:02.160Z,101603.25
2018-08-18T13:25:28.125Z,101606.05
2018-08-18T13:27:54.117Z,101599.64
2018-08-18T13:30:21.152Z,101594.27
2018-08-18T13:32:47.134Z,101590.02
2018-08-18T13:35:13.302Z,101587.95
2018-08-18T13:37:39.323Z,101582.49
2018-08-18T13:40:05.416Z,101584.47
2018-08-18T13:42:31.440Z,101586.63
2018-08-18T13:44:57.400Z,101580.21
2018-08-18T13:47:23.413Z,101584.15
2018-08-18T13:49:49.406Z,101579.57
2018-08-18T13:52:15.416Z,101584.42
2018-08-18T13:54:41.423Z,101582.63
2018-08-18T13:57:07.473Z,101584.20
2018-08-18T13:59:33.506Z,101586.30
2018-08-18T14:01:59.521Z,101584.88
2018-08-18T14:04:25.526Z,101582.87
2018-08-18T14:06:51.785Z,101578.73
2018-08-18T14:09:17.796Z,101577.23
2018-08-18T14:11:43.798Z,101575.72
2018-08-18T14:14:09.805Z,101574.90
2018-08-18T14:16:35.880Z,101567.94
2018-08-18T14:19:01.872Z,101569.27
2018-08-18T14:21:27.876Z,101564.45
2018-08-18T14:23:53.886Z,101565.59
2018-08-18T14:26:19.853Z,101566.30
2018-08-18T14:28:45.867Z,101563.62
2018-08-18T14:31:11.888Z,101564.40
2018-08-18T14:33:38.219Z,101568.95
2018-08-18T14:36:04.217Z,101569.44
2018-08-18T14:38:30.188Z,101560.14
2018-08-18T14:40:56.197Z,101565.09
2018-08-18T14:43:22.160Z,101561.28
2018-08-18T14:45:48.243Z,101568.11
2018-08-18T14:48:14.148Z,101569.91
2018-08-18T14:50:40.144Z,101568.63
2018-08-18T14:53:06.174Z,101569.13
2018-08-18T14:55:32.196Z,101567.25
2018-08-18T14:57:58.187Z,101562.11
2018-08-18T15:00:24.163Z,101565.14
2018-08-18T15:02:50.141Z,101561.11
2018-08-18T15:05:16.119Z,101564.77
2018-08-18T15:07:42.107Z,101560.73
2018-08-18T15:10:08.071Z,101561.94
2018-08-18T15:12:34.275Z,101558.45
2018-08-18T15:15:00.344Z,101557.62
2018-08-18T15:17:26.425Z,101553.33
2018-08-18T15:19:52.473Z,101556.34
2018-08-18T15:22:18.448Z,101549.84
2018-08-18T15:24:44.543Z,101552.50
2018-08-18T15:27:10.526Z,101552.17
2018-08-18T15:29:36.499Z,101547.22
2018-08-18T15:32:02.507Z,101547.45
2018-08-18T15:34:28.491Z,101546.76
2018-08-18T15:36:54.519Z,101547.69
2018-08-18T15:39:21.309Z,101546.18
2018-08-18T15:41:47.448Z,101549.34
2018-08-18T15:44:13.433Z,101547.37
2018-08-18T15:46:39.417Z,101546.36
2018-08-18T15:49:05.470Z,101546.68
2018-08-18T15:51:31.430Z,101546.11
2018-08-18T15:53:57.400Z,101549.41
2018-08-18T15:56:23.421Z,101542.70
2018-08-18T15:58:49.409Z,101550.17
2018-08-18T16:01:15.401Z,101552.26
2018-08-18T16:03:41.389Z,101550.11
2018-08-18T16:06:07.413Z,101549.20
2018-08-18T16:08:33.409Z,101546.86
2018-08-18T16:10:59.393Z,101549.20
2018-08-18T16:13:25.377Z,101540.44
2018-08-18T16:15:51.426Z,101528.63
2018-08-18T16:18:17.377Z,101535.81
2018-08-18T16:20:43.357Z,101536.81
2018-08-18T16:23:09.340Z,101536.73
2018-08-18T16:25:35.327Z,101536.59
2018-08-18T16:28:01.378Z,101536.72
2018-08-18T16:30:27.352Z,101541.48
2018-08-18T16:32:53.327Z,101537.45
2018-08-18T16:35:19.289Z,101542.20
2018-08-18T16:37:45.237Z,101533.94
2018-08-18T16:40:11.229Z,101543.09
2018-08-18T16:42:37.237Z,101550.15
2018-08-18T16:45:03.196Z,101545.25
2018-08-18T16:47:29.159Z,101540.81
2018-08-18T16:49:55.170Z,101536.81
2018-08-18T16:52:21.217Z,101544.14
2018-08-18T16:54:47.200Z,101545.48
2018-08-18T16:57:13.220Z,101547.44
2018-08-18T16:59:39.210Z,101547.45
2018-08-18T17:02:05.225Z,101550.92
2018-08-18T17:04:31.212Z,101550.53
2018-08-18T17:06:57.214Z,101553.40
2018-08-18T17:09:23.175Z,101547.30
2018-08-18T17:11:49.195Z,101544.78
2018-08-18T17:14:15.186Z,101546.44
2018-08-18T17:16:41.315Z,101550.35
2018-08-18T17:19:07.222Z,101556.38
2018-08-18T17:21:33.193Z,101561.16
2018-08-18T17:23:59.189Z,101560.33
2018-08-18T17:26:25.232Z,101564.95
2018-08-18T17:28:51.224Z,101566.28
2018-08-18T17:31:17.223Z,101563.64
2018-08-18T17:33:43.232Z,101567.94
2018-08-18T17:36:09.200Z,101566.42
2018-08-18T17:38:35.203Z,101571.59
2018-08-18T17:41:01.279Z,101561.30
2018-08-18T17:43:27.242Z,101563.72
2018-08-18T17:45:53.202Z,101565.28
2018-08-18T17:48:19.188Z,101569.08
2018-08-18T17:50:45.186Z,101565.41
2018-08-18T17:53:11.160Z,101565.78
2018-08-18T17:55:37.146Z,101567.62
2018-08-18T17:58:03.137Z,101569.57
2018-08-18T18:00:29.116Z,101566.64
2018-08-18T18:02:55.108Z,101572.55
2018-08-18T18:05:21.119Z,101574.02
2018-08-18T18:07:47.068Z,101581.34
2018-08-18T18:10:13.054Z,101579.66
2018-08-18T18:12:39.132Z,101575.40
2018-08-18T18:15:05.106Z,101581.86
2018-08-18T18:17:31.079Z,101579.58
2018-08-18T18:19:57.042Z,101583.31
2018-08-18T18:22:23.016Z,101586.54
2018-08-18T18:24:49.004Z,101593.09
2018-08-18T18:27:14.981Z,101591.53
2018-08-18T18:29:40.965Z,101592.87
2018-08-18T18:32:07.033Z,101590.93
2018-08-18T18:34:33.002Z,101593.26
2018-08-18T18:36:59.141Z,101593.26
2018-08-18T18:39:25.123Z,101601.02
2018-08-18T18:41:51.096Z,101596.74
2018-08-18T18:44:17.079Z,101596.84
2018-08-18T18:46:43.065Z,101593.55
2018-08-18T18:49:09.036Z,101598.08
2018-08-18T18:51:35.040Z,101607.16
2018-08-18T18:54:01.254Z,101604.57
2018-08-18T18:56:27.247Z,101610.22
2018-08-18T18:58:53.200Z,101609.72
2018-08-18T19:01:19.286Z,101613.15
2018-08-18T19:03:45.150Z,101621.58
2018-08-18T19:06:11.151Z,101614.89
2018-08-18T19:08:37.158Z,101627.03
2018-08-18T19:11:03.204Z,101632.20
2018-08-18T19:13:29.164Z,101635.27
2018-08-18T19:15:55.320Z,101639.95
2018-08-18T19:18:21.260Z,101646.32
2018-08-18T19:20:47.278Z,101645.14
2018-08-18T19:23:13.300Z,101650.06
2018-08-18T19:25:39.365Z,101647.84
2018-08-18T19:28:05.403Z,101654.42
2018-08-18T19:30:31.384Z,101658.47
2018-08-18T19:32:57.402Z,101658.28
2018-08-18T19:35:23.465Z,101662.03
2018-08-18T19:37:49.477Z,101659.19
2018-08-18T19:40:15.461Z,101656.64
2018-08-18T19:42:41.551Z,101660.30
2018-08-18T19:45:07.507Z,101659.56
2018-08-18T19:47:33.524Z,101662.91
2018-08-18T19:49:59.561Z,101662.81
2018-08-18T19:52:25.573Z,101665.52
2018-08-18T19:54:51.567Z,101662.87
2018-08-18T19:57:17.617Z,101667.40
2018-08-18T19:59:43.705Z,101659.23
2018-08-18T20:02:09.688Z,101663.37
2018-08-18T20:04:35.643Z,101663.60
2018-08-18T20:07:01.666Z,101657.47
2018-08-18T20:09:27.623Z,101664.37
2018-08-18T20:11:53.618Z,101661.63
2018-08-18T20:14:19.637Z,101661.02
2018-08-18T20:16:45.613Z,101658.73
2018-08-18T20:19:11.594Z,101663.73
2018-08-18T20:21:37.692Z,101670.15
2018-08-18T20:24:03.752Z,101668.41
2018-08-18T20:26:29.730Z,101667.34
2018-08-18T20:28:55.725Z,101667.25
2018-08-18T20:31:21.704Z,101668.58
2018-08-18T20:33:47.705Z,101672.56
2018-08-18T20:36:13.700Z,101672.55
2018-08-18T20:38:39.682Z,101674.83
2018-08-18T20:41:05.825Z,101671.13
2018-08-18T20:43:31.798Z,101667.05
2018-08-18T20:45:57.800Z,101671.31
2018-08-18T20:48:23.806Z,101667.83
2018-08-18T20:50:49.784Z,101681.00
2018-08-18T20:53:15.776Z,101683.38
2018-08-18T20:55:41.736Z,101683.44
2018-08-18T20:58:07.758Z,101685.00
2018-08-18T21:00:33.749Z,101688.61
2018-08-18T21:02:59.741Z,101689.34
2018-08-18T21:05:25.746Z,101690.63
2018-08-18T21:07:51.768Z,101689.11
2018-08-18T21:10:17.746Z,101689.61
2018-08-18T21:12:43.758Z,101687.42
2018-08-18T21:15:09.902Z,101683.71
2018-08-18T21:17:35.920Z,101691.13
2018-08-18T21:20:01.892Z,101694.79
2018-08-18T21:22:27.980Z,101691.94
2018-08-18T21:24:54.023Z,101698.14
2018-08-18T21:27:20.027Z,101697.58
2018-08-18T21:29:46.032Z,101693.98
2018-08-18T21:32:12.058Z,101699.24
2018-08-18T21:34:38.100Z,101699.16
2018-08-18T21:37:04.050Z,101697.72
2018-08-18T21:39:30.071Z,101704.05
2018-08-18T21:41:56.051Z,101700.56
2018-08-18T21:44:22.105Z,101703.53
2018-08-18T21:46:48.092Z,101700.70
2018-08-18T21:49:14.106Z,101700.38
2018-08-18T21:51:40.116Z,101705.97
2018-08-18T21:54:06.079Z,101705.09
2018-08-18T21:56:32.109Z,101705.28
2018-08-18T21:58:58.179Z,101714.34
2018-08-18T22:01:24.147Z,101714.31
2018-08-18T22:03:50.212Z,101717.24
2018-08-18T22:06:16.276Z,101713.64
2018-08-18T22:08:42.296Z,101716.36
2018-08-18T22:11:08.289Z,101721.91
2018-08-18T22:13:34.290Z,101721.69
2018-08-18T22:16:00.316Z,101724.17
2018-08-18T22:18:26.250Z,101727.53
2018-08-18T22:20:52.231Z,101728.14
2018-08-18T22:23:18.216Z,101730.20
2018-08-18T22:25:44.197Z,101725.41
2018-08-18T22:28:10.204Z,101722.30
2018-08-18T22:30:36.458Z,101733.23
2018-08-18T22:33:02.749Z,101732.43
2018-08-18T22:35:28.788Z,101730.00
2018-08-18T22:37:54.804Z,101728.50
2018-08-18T22:40:20.819Z,101731.11
2018-08-18T22:42:47.061Z,101731.85
2018-08-18T22:45:13.124Z,101725.27
2018-08-18T22:47:39.120Z,101719.56
2018-08-18T22:50:05.083Z,101722.55
2018-08-18T22:52:31.062Z,101728.95
2018-08-18T22:54:57.057Z,101730.77
2018-08-18T22:57:23.148Z,101728.75
2018-08-18T22:59:49.154Z,101729.25
2018-08-18T23:02:15.154Z,101738.16
2018-08-18T23:04:41.116Z,101735.03
2018-08-18T23:07:07.150Z,101734.81
2018-08-18T23:09:33.269Z,101728.06
2018-08-18T23:11:59.237Z,101730.72
2018-08-18T23:14:25.205Z,101728.62
2018-08-18T23:16:51.231Z,101734.64
2018-08-18T23:19:17.511Z,101731.41
2018-08-18T23:21:43.494Z,101731.22
2018-08-18T23:24:09.474Z,101725.21
2018-08-18T23:26:35.461Z,101727.23
2018-08-18T23:29:01.436Z,101731.19
2018-08-18T23:31:27.446Z,101731.39
2018-08-18T23:33:53.528Z,101723.75
2018-08-18T23:36:19.612Z,101725.88
2018-08-18T23:38:45.615Z,101724.74
2018-08-18T23:41:11.606Z,101733.18
2018-08-18T23:43:37.578Z,101728.56
2018-08-18T23:46:03.547Z,101729.86
2018-08-18T23:48:29.575Z,101728.81
2018-08-18T23:50:55.587Z,101730.52
2018-08-18T23:53:21.552Z,101725.88
2018-08-18T23:55:47.551Z,101734.17
2018-08-18T23:58:13.536Z,101726.52
